Time;durP1;ratioP1;P1;durP2;ratioP2;P2;SDS_P1;SDS_P2;PMS_P1;PMS_P2;Temp;Humidity;BMP_temperature;BMP_pressure;BME280_temperature;BME280_humidity;BME280_pressure;Samples;Min_cycle;Max_cycle;Signal;HPM_P1;HPM_P2
2022/12/25 00:02:08;;;;;;;118.32;32.53;;;;;;;;;;5070354;28;20413;-76
2022/12/25 00:04:34;;;;;;;107.57;32.47;;;;;;;;;;5088878;28;20425;-76
2022/12/25 00:07:00;;;;;;;117.15;33.25;;;;;;;;;;5090122;28;20406;-76
2022/12/25 00:09:26;;;;;;;120.07;32.55;;;;;;;;;;5053848;28;20426;-76
2022/12/25 00:11:52;;;;;;;122.28;34.17;;;;;;;;;;5088555;28;20778;-76
2022/12/25 00:14:18;;;;;;;120.22;34.83;;;;;;;;;;5074024;28;20448;-76
2022/12/25 00:16:44;;;;;;;125.00;34.73;;;;;;;;;;5085724;28;20413;-76
2022/12/25 00:19:10;;;;;;;137.43;37.25;;;;;;;;;;5087941;28;20452;-76
2022/12/25 00:21:37;;;;;;;140.82;37.15;;;;;;;;;;5089674;28;20406;-76
2022/12/25 00:24:03;;;;;;;140.95;37.92;;;;;;;;;;5087432;28;20425;-76
2022/12/25 00:26:29;;;;;;;137.15;36.38;;;;;;;;;;5088434;28;20816;-76
2022/12/25 00:28:56;;;;;;;122.43;35.25;;;;;;;;;;5089579;28;20769;-76
2022/12/25 00:31:22;;;;;;;127.68;35.63;;;;;;;;;;5088582;28;20498;-76
2022/12/25 00:33:51;;;;;;;130.32;35.22;;;;;;;;;;5084134;28;20440;-76
2022/12/25 00:36:19;;;;;;;135.10;35.97;;;;;;;;;;5071789;28;20913;-76
2022/12/25 00:38:45;;;;;;;129.68;36.55;;;;;;;;;;5081593;28;20444;-76
2022/12/25 00:41:13;;;;;;;124.03;37.00;;;;;;;;;;5081533;28;20414;-76
2022/12/25 00:43:40;;;;;;;129.85;37.95;;;;;;;;;;5085569;28;20417;-76
2022/12/25 00:46:07;;;;;;;137.47;38.23;;;;;;;;;;5085792;28;20569;-76
2022/12/25 00:48:34;;;;;;;153.90;39.75;;;;;;;;;;5084415;28;20413;-76
2022/12/25 00:51:01;;;;;;;153.67;38.93;;;;;;;;;;5070206;28;20483;-74
2022/12/25 00:53:27;;;;;;;169.55;40.70;;;;;;;;;;5088452;28;20454;-74
2022/12/25 00:55:54;;;;;;;167.65;41.22;;;;;;;;;;5088621;28;20421;-76
2022/12/25 00:58:21;;;;;;;160.30;41.08;;;;;;;;;;5075124;28;20448;-75
2022/12/25 01:00:47;;;;;;;147.38;38.50;;;;;;;;;;5088742;28;20410;-75
2022/12/25 01:03:13;;;;;;;142.70;40.00;;;;;;;;;;5087299;28;20445;-75
2022/12/25 01:05:39;;;;;;;138.55;38.65;;;;;;;;;;5052430;28;20481;-75
2022/12/25 01:08:05;;;;;;;158.30;39.92;;;;;;;;;;5085917;28;20941;-75
2022/12/25 01:10:31;;;;;;;161.52;40.78;;;;;;;;;;5089064;28;20815;-75
2022/12/25 01:12:58;;;;;;;158.40;39.70;;;;;;;;;;5089876;28;20426;-75
2022/12/25 01:15:24;;;;;;;145.20;38.78;;;;;;;;;;5086940;28;20421;-75
2022/12/25 01:17:50;;;;;;;136.98;37.80;;;;;;;;;;5085597;28;20448;-75
2022/12/25 01:20:16;;;;;;;154.05;38.08;;;;;;;;;;5054523;28;20414;-75
2022/12/25 01:22:43;;;;;;;147.93;39.55;;;;;;;;;;5068923;28;20439;-75
2022/12/25 01:25:10;;;;;;;185.32;43.10;;;;;;;;;;5088517;28;20902;-75
2022/12/25 01:27:37;;;;;;;188.55;42.78;;;;;;;;;;5072948;28;20405;-75
2022/12/25 01:30:03;;;;;;;155.27;40.40;;;;;;;;;;5085624;28;20432;-75
2022/12/25 01:32:29;;;;;;;139.77;39.90;;;;;;;;;;5069540;28;20459;-75
2022/12/25 01:34:55;;;;;;;130.35;38.53;;;;;;;;;;5089879;28;20420;-75
2022/12/25 01:37:23;;;;;;;126.82;38.17;;;;;;;;;;5075864;28;20414;-75
2022/12/25 01:39:51;;;;;;;131.65;38.42;;;;;;;;;;5075671;28;20773;-76
2022/12/25 01:42:19;;;;;;;130.50;38.38;;;;;;;;;;5093723;28;20730;-76
2022/12/25 01:44:45;;;;;;;118.95;35.95;;;;;;;;;;5091260;28;20742;-76
2022/12/25 01:47:12;;;;;;;114.00;35.88;;;;;;;;;;5087567;28;20430;-75
2022/12/25 01:49:39;;;;;;;111.22;34.50;;;;;;;;;;5090295;28;20421;-75
2022/12/25 01:52:11;;;;;;;103.87;34.00;;;;;;;;;;5091626;28;20437;-75
2022/12/25 01:54:40;;;;;;;105.93;34.55;;;;;;;;;;5091093;28;20940;-76
2022/12/25 01:57:08;;;;;;;111.45;34.45;;;;;;;;;;5092439;28;20967;-76
2022/12/25 01:59:34;;;;;;;104.30;34.35;;;;;;;;;;5071407;28;20920;-76
2022/12/25 02:02:00;;;;;;;106.60;33.42;;;;;;;;;;5089134;28;21928;-76
2022/12/25 02:04:39;;;;;;;107.13;34.70;;;;;;;;;;5090733;28;20426;-76
2022/12/25 02:07:10;;;;;;;101.97;33.63;;;;;;;;;;5073443;28;20417;-76
2022/12/25 02:09:36;;;;;;;97.07;34.13;;;;;;;;;;5090757;28;20479;-76
2022/12/25 02:12:03;;;;;;;107.07;33.70;;;;;;;;;;5072479;28;20503;-76
2022/12/25 02:14:30;;;;;;;100.73;33.53;;;;;;;;;;5074073;28;20455;-76
2022/12/25 02:17:04;;;;;;;102.68;33.30;;;;;;;;;;5090790;28;20445;-76
2022/12/25 02:19:55;;;;;;;95.28;33.30;;;7.80;99.90;;;;;;5091095;28;20436;-76
2022/12/25 02:22:33;;;;;;;95.72;32.63;;;;;;;;;;5068873;28;20793;-76
2022/12/25 02:25:21;;;;;;;94.70;33.90;;;;;;;;;;5087088;28;20422;-76
2022/12/25 02:27:56;;;;;;;98.38;33.10;;;;;;;;;;5089444;28;20426;-76
2022/12/25 02:30:22;;;;;;;90.10;33.63;;;;;;;;;;5079154;28;20423;-76
2022/12/25 02:34:01;;;;;;;96.15;34.85;;;;;;;;;;5069355;28;20416;-76
2022/12/25 02:35:44;;;;;;;94.50;34.03;;;;;;;;;;5085882;28;20765;-76
2022/12/25 02:38:21;;;;;;;86.75;32.88;;;;;;;;;;5083490;28;20721;-74
2022/12/25 02:40:58;;;;;;;102.57;34.27;;;;;;;;;;5083465;28;20421;-74
2022/12/25 03:08:42;;;;;;;84.83;31.40;;;;;;;;;;5082814;28;20423;-74
2022/12/25 03:16:49;;;;;;;86.25;32.65;;;;;;;;;;5091742;28;20414;-74
2022/12/25 03:16:49;;;;;;;83.05;32.20;;;7.90;99.90;;;;;;5071830;28;20876;-74
2022/12/25 03:27:31;;;;;;;94.53;34.63;;;;;;;;;;5076091;28;20500;-74
2022/12/25 03:33:04;;;;;;;84.30;32.58;;;;;;;;;;5073053;28;20429;-74
2022/12/25 03:36:05;;;;;;;87.53;32.47;;;;;;;;;;5089803;28;20998;-74
2022/12/25 03:47:47;;;;;;;100.38;34.53;;;;;;;;;;5070614;28;20425;-73
2022/12/25 04:37:24;;;;;;;109.55;35.08;;;;;;;;;;5089667;28;20421;-74
2022/12/25 04:39:50;;;;;;;94.80;34.23;;;;;;;;;;5072942;28;20417;-74
2022/12/25 04:42:16;;;;;;;96.72;34.30;;;;;;;;;;5090382;28;20462;-74
2022/12/25 04:44:42;;;;;;;98.30;34.47;;;;;;;;;;5075548;28;20430;-74
2022/12/25 04:47:08;;;;;;;99.28;34.03;;;;;;;;;;5082252;28;20418;-73
2022/12/25 04:49:34;;;;;;;100.75;34.15;;;;;;;;;;5071115;28;20418;-74
2022/12/25 04:52:00;;;;;;;89.95;31.85;;;;;;;;;;5071699;28;20940;-73
2022/12/25 04:54:26;;;;;;;91.30;31.58;;;;;;;;;;5089409;28;20422;-73
2022/12/25 04:56:52;;;;;;;88.97;31.40;;;;;;;;;;5089624;28;20812;-74
2022/12/25 04:59:18;;;;;;;88.25;31.58;;;;;;;;;;5067899;28;20443;-74
2022/12/25 05:01:44;;;;;;;96.18;32.50;;;;;;;;;;5044354;28;20469;-73
2022/12/25 05:04:10;;;;;;;82.80;30.55;;;;;;;;;;5071701;28;20928;-74
2022/12/25 05:06:37;;;;;;;83.45;30.90;;;;;;;;;;5087662;28;20800;-74
2022/12/25 05:09:04;;;;;;;91.50;31.38;;;;;;;;;;5055387;28;20621;-74
2022/12/25 05:11:30;;;;;;;88.63;31.20;;;;;;;;;;5093910;28;20480;-73
2022/12/25 05:13:56;;;;;;;88.22;31.23;;;;;;;;;;5057770;28;20419;-73
2022/12/25 05:16:23;;;;;;;92.45;32.47;;;;;;;;;;5091677;28;20418;-73
2022/12/25 05:18:50;;;;;;;91.20;31.50;;;;;;;;;;5076620;28;20518;-73
2022/12/25 05:21:16;;;;;;;96.43;32.80;;;;;;;;;;5091937;28;20880;-73
2022/12/25 05:23:47;;;;;;;94.88;32.67;;;;;;;;;;5092197;28;20456;-73
2022/12/25 05:26:18;;;;;;;97.78;32.35;;;;;;;;;;5093048;28;20433;-75
2022/12/25 05:28:44;;;;;;;98.20;34.45;;;;;;;;;;5092528;28;20417;-75
2022/12/25 05:31:10;;;;;;;104.35;32.85;;;;;;;;;;5057368;28;20434;-76
2022/12/25 05:33:36;;;;;;;100.40;33.15;;;;;;;;;;5081152;28;20588;-75
2022/12/25 05:36:06;;;;;;;105.03;34.47;;;;;;;;;;5071992;28;20564;-75
2022/12/25 05:38:32;;;;;;;101.68;33.88;;;;;;;;;;5077872;28;20413;-75
2022/12/25 05:40:59;;;;;;;105.43;34.47;;;;;;;;;;5092703;28;20536;-75
2022/12/25 05:43:26;;;;;;;103.95;34.97;;;;;;;;;;5091924;28;20422;-75
2022/12/25 05:45:52;;;;;;;107.88;35.42;;;;;;;;;;5063945;28;20458;-75
2022/12/25 05:48:18;;;;;;;111.22;34.78;;;;;;;;;;5090647;28;20525;-75
2022/12/25 05:50:44;;;;;;;103.85;34.95;;;;;;;;;;5090577;28;20928;-75
2022/12/25 05:53:13;;;;;;;102.93;35.05;;;8.70;99.90;;;;;;5091714;28;20418;-76
2022/12/25 05:55:42;;;;;;;88.73;33.87;;;;;;;;;;5092475;28;20515;-76
2022/12/25 05:58:09;;;;;;;108.55;34.65;;;;;;;;;;5090374;28;20461;-76
2022/12/25 06:00:35;;;;;;;104.43;34.33;;;;;;;;;;5087649;28;20418;-75
2022/12/25 06:03:01;;;;;;;97.80;34.53;;;;;;;;;;5073150;28;20932;-76
2022/12/25 06:05:28;;;;;;;114.78;35.58;;;;;;;;;;5087985;28;20929;-76
2022/12/25 06:07:54;;;;;;;106.75;35.70;;;;;;;;;;5092215;28;20847;-76
2022/12/25 06:10:20;;;;;;;124.85;37.03;;;;;;;;;;5089664;28;20498;-76
2022/12/25 06:12:46;;;;;;;103.07;34.88;;;;;;;;;;5092114;28;20982;-76
2022/12/25 06:15:12;;;;;;;108.07;35.30;;;;;;;;;;5090887;28;20430;-76
2022/12/25 06:17:38;;;;;;;106.75;35.20;;;;;;;;;;5076329;28;20414;-75
2022/12/25 06:20:05;;;;;;;111.90;34.90;;;;;;;;;;5076753;28;20471;-75
2022/12/25 06:22:32;;;;;;;106.85;36.05;;;;;;;;;;5088411;28;20414;-75
2022/12/25 06:24:58;;;;;;;188.82;42.00;;;;;;;;;;5086589;28;20418;-75
2022/12/25 06:27:25;;;;;;;107.78;35.58;;;;;;;;;;5091861;28;20429;-76
2022/12/25 06:29:51;;;;;;;112.30;35.65;;;;;;;;;;5076689;28;20417;-75
2022/12/25 06:32:17;;;;;;;102.03;35.03;;;;;;;;;;5075578;28;20785;-76
2022/12/25 06:34:43;;;;;;;111.60;34.75;;;;;;;;;;5069850;28;20419;-76
2022/12/25 06:37:09;;;;;;;112.18;35.75;;;;;;;;;;5073697;28;20421;-75
2022/12/25 06:39:35;;;;;;;127.57;37.88;;;;;;;;;;5090064;28;20496;-75
2022/12/25 06:42:01;;;;;;;255.82;48.95;;;;;;;;;;5075525;28;20500;-76
2022/12/25 06:44:27;;;;;;;271.05;50.55;;;;;;;;;;5091637;28;20420;-76
2022/12/25 06:46:56;;;;;;;108.70;35.60;;;;;;;;;;5092506;28;20463;-75
2022/12/25 06:49:22;;;;;;;145.48;37.78;;;;;;;;;;5073799;28;20418;-76
2022/12/25 06:51:48;;;;;;;105.78;35.25;;;;;;;;;;5067739;28;20487;-76
2022/12/25 06:54:14;;;;;;;107.40;33.63;;;;;;;;;;5088751;28;20497;-76
2022/12/25 06:56:40;;;;;;;102.72;35.28;;;;;;;;;;5091730;28;20420;-76
2022/12/25 06:59:07;;;;;;;335.80;49.65;;;;;;;;;;5069930;28;20444;-76
2022/12/25 07:01:36;;;;;;;351.25;54.58;;;;;;;;;;5090304;28;20405;-76
2022/12/25 07:04:13;;;;;;;249.00;42.90;;;;;;;;;;5087393;28;20507;-75
2022/12/25 07:06:39;;;;;;;196.73;41.00;;;;;;;;;;5074655;28;20416;-76
2022/12/25 07:09:05;;;;;;;147.23;37.45;;;;;;;;;;5088811;28;20414;-75
2022/12/25 07:11:31;;;;;;;103.03;33.95;;;;;;;;;;5089769;28;20487;-76
2022/12/25 07:13:57;;;;;;;155.95;36.15;;;;;;;;;;5082530;28;20913;-76
2022/12/25 07:16:23;;;;;;;110.10;33.92;;;;;;;;;;5038816;28;20416;-76
2022/12/25 07:18:50;;;;;;;80.20;30.73;;;;;;;;;;5059215;28;20414;-76
2022/12/25 07:21:17;;;;;;;78.15;30.60;;;;;;;;;;5090132;28;20434;-75
2022/12/25 07:23:47;;;;;;;89.17;32.17;;;;;;;;;;5075487;28;20746;-76
2022/12/25 07:26:13;;;;;;;133.70;33.47;;;;;;;;;;5070743;28;20429;-76
2022/12/25 07:28:40;;;;;;;129.95;34.92;;;;;;;;;;5089451;28;20461;-76
2022/12/25 07:31:08;;;;;;;70.93;28.58;;;;;;;;;;5076800;28;20433;-76
2022/12/25 07:33:34;;;;;;;102.95;33.15;;;;;;;;;;5090907;28;20418;-75
2022/12/25 07:36:00;;;;;;;83.20;30.42;;;;;;;;;;5091520;28;20467;-76
2022/12/25 07:38:26;;;;;;;73.32;28.90;;;;;;;;;;5088935;28;20503;-76
2022/12/25 07:40:53;;;;;;;64.20;28.27;;;;;;;;;;5088958;28;20421;-75
2022/12/25 07:43:19;;;;;;;70.20;28.05;;;;;;;;;;5088228;28;20521;-75
2022/12/25 07:45:45;;;;;;;62.10;27.50;;;;;;;;;;5086800;28;20445;-75
2022/12/25 07:48:11;;;;;;;65.65;28.05;;;;;;;;;;5084227;28;20778;-76
2022/12/25 07:50:37;;;;;;;150.65;34.58;;;;;;;;;;5090064;28;20429;-76
2022/12/25 07:53:03;;;;;;;58.28;25.67;;;;;;;;;;5081830;28;20414;-76
2022/12/25 07:55:30;;;;;;;55.63;24.70;;;;;;;;;;5087883;28;20498;-77
2022/12/25 07:57:56;;;;;;;59.17;25.77;;;;;;;;;;5070942;28;20421;-78
2022/12/25 08:00:28;;;;;;;53.13;23.40;;;;;;;;;;5070851;28;20422;-77
2022/12/25 08:02:54;;;;;;;51.42;24.05;;;;;;;;;;5078925;28;20431;-77
2022/12/25 08:05:20;;;;;;;50.25;22.92;;;;;;;;;;5074745;28;20429;-77
2022/12/25 08:07:46;;;;;;;45.65;22.05;;;;;;;;;;5072024;28;20418;-77
2022/12/25 08:10:12;;;;;;;50.80;22.30;;;;;;;;;;5075214;28;20860;-77
2022/12/25 08:12:38;;;;;;;49.53;22.35;;;;;;;;;;5071107;28;20781;-77
2022/12/25 08:15:05;;;;;;;52.22;23.70;;;;;;;;;;5081778;28;20438;-77
2022/12/25 08:17:31;;;;;;;47.15;21.83;;;;;;;;;;5081333;28;20418;-77
2022/12/25 08:19:57;;;;;;;45.33;21.80;;;;;;;;;;5083494;28;20420;-77
2022/12/25 08:22:23;;;;;;;41.50;22.02;;;;;;;;;;5088667;28;20409;-76
2022/12/25 08:24:49;;;;;;;39.83;20.05;;;;;;;;;;5061093;28;20967;-76
2022/12/25 08:27:15;;;;;;;40.83;19.80;;;;;;;;;;5094621;28;20493;-77
2022/12/25 08:29:43;;;;;;;44.28;20.13;;;;;;;;;;5073944;28;20418;-77
2022/12/25 08:32:09;;;;;;;42.30;20.52;;;;;;;;;;5058316;28;20468;-76
2022/12/25 08:34:37;;;;;;;43.63;20.38;;;;;;;;;;5084478;28;20773;-77
2022/12/25 08:37:03;;;;;;;42.13;20.15;;;;;;;;;;5085205;28;20439;-76
2022/12/25 08:39:29;;;;;;;42.53;20.70;;;;;;;;;;5065109;28;20494;-77
2022/12/25 08:41:55;;;;;;;40.75;20.17;;;;;;;;;;5055251;28;20895;-77
2022/12/25 08:44:21;;;;;;;38.25;20.40;;;;;;;;;;5083394;28;20489;-77
2022/12/25 08:46:47;;;;;;;69.70;22.00;;;;;;;;;;5091167;28;20426;-77
2022/12/25 08:49:15;;;;;;;40.05;19.27;;;;;;;;;;5101680;28;20432;-78
2022/12/25 08:51:41;;;;;;;41.08;19.33;;;;;;;;;;5085230;28;20831;-77
2022/12/25 08:54:08;;;;;;;35.30;18.67;;;;;;;;;;5100942;27;20919;-78
2022/12/25 08:56:35;;;;;;;35.30;18.73;;;;;;;;;;5093486;28;21813;-77
2022/12/25 08:59:01;;;;;;;38.67;18.92;;;;;;;;;;5114620;28;20430;-79
2022/12/25 09:01:27;;;;;;;32.92;17.55;;;;;;;;;;5093154;28;20475;-79
2022/12/25 09:03:53;;;;;;;34.58;17.73;;;;;;;;;;5095841;28;20422;-79
2022/12/25 09:06:19;;;;;;;35.07;17.27;;;;;;;;;;5090934;27;20493;-79
2022/12/25 09:08:45;;;;;;;34.25;17.17;;;;;;;;;;5079217;28;20992;-79
2022/12/25 09:11:13;;;;;;;35.78;17.60;;;9.00;99.90;;;;;;5090757;27;21171;-79
2022/12/25 09:13:39;;;;;;;32.83;17.33;;;;;;;;;;5093380;28;20432;-79
2022/12/25 09:16:06;;;;;;;30.30;16.98;;;;;;;;;;5081345;28;20433;-79
2022/12/25 09:18:32;;;;;;;32.08;16.20;;;;;;;;;;5089721;28;20477;-77
2022/12/25 09:20:59;;;;;;;29.38;15.88;;;;;;;;;;5059704;28;20417;-78
2022/12/25 09:23:28;;;;;;;26.83;15.18;;;;;;;;;;5078824;28;20461;-76
2022/12/25 09:25:54;;;;;;;28.30;16.27;;;;;;;;;;5076513;28;20772;-76
2022/12/25 09:28:21;;;;;;;30.30;16.67;;;;;;;;;;5069946;28;20428;-75
2022/12/25 09:30:50;;;;;;;28.30;15.50;;;;;;;;;;5071669;28;20459;-76
2022/12/25 09:33:16;;;;;;;25.02;15.23;;;;;;;;;;5092539;27;20998;-76
2022/12/25 09:35:42;;;;;;;26.10;14.70;;;;;;;;;;5079245;28;20472;-76
2022/12/25 09:38:08;;;;;;;26.58;15.65;;;;;;;;;;5094237;28;20416;-76
2022/12/25 09:40:34;;;;;;;26.77;14.98;;;;;;;;;;5094355;28;20417;-76
2022/12/25 09:43:02;;;;;;;26.25;14.77;;;9.10;99.90;;;;;;5082027;28;20490;-77
2022/12/25 09:45:31;;;;;;;26.90;14.23;;;;;;;;;;5097523;28;20412;-77
2022/12/25 09:47:58;;;;;;;30.27;16.25;;;;;;;;;;5079656;28;20444;-77
2022/12/25 09:50:33;;;;;;;26.55;14.45;;;;;;;;;;5107644;28;20404;-76
2022/12/25 09:53:05;;;;;;;29.15;14.52;;;;;;;;;;5079133;28;20416;-77
2022/12/25 09:55:33;;;;;;;23.58;14.05;;;;;;;;;;5081224;28;20893;-76
2022/12/25 09:58:03;;;;;;;27.25;14.55;;;;;;;;;;5088684;28;20420;-74
2022/12/25 10:00:44;;;;;;;22.90;13.45;;;;;;;;;;5088959;28;20503;-74
2022/12/25 10:03:10;;;;;;;25.85;13.73;;;;;;;;;;5095057;28;20434;-74
2022/12/25 10:05:42;;;;;;;23.67;13.25;;;;;;;;;;5094129;27;20494;-75
2022/12/25 10:08:24;;;;;;;21.92;13.90;;;;;;;;;;5095563;28;20947;-74
2022/12/25 10:10:56;;;;;;;33.78;14.70;;;;;;;;;;5094064;28;20420;-75
2022/12/25 10:13:22;;;;;;;25.17;14.07;;;;;;;;;;5110303;28;20929;-74
2022/12/25 10:15:58;;;;;;;26.52;15.65;;;;;;;;;;5089277;28;20443;-75
2022/12/25 10:18:24;;;;;;;26.58;14.20;;;;;;;;;;5094426;28;20444;-75
2022/12/25 10:20:51;;;;;;;31.52;13.75;;;;;;;;;;5091835;28;20433;-75
2022/12/25 10:23:29;;;;;;;23.35;13.15;;;;;;;;;;5093413;28;20502;-74
2022/12/25 10:25:55;;;;;;;27.80;14.20;;;;;;;;;;5076071;28;20434;-74
2022/12/25 10:28:44;;;;;;;26.57;14.30;;;;;;;;;;5074573;28;20460;-75
2022/12/25 10:31:21;;;;;;;59.30;15.20;;;;;;;;;;5076964;28;20831;-75
2022/12/25 10:33:48;;;;;;;25.80;13.90;;;;;;;;;;5076529;28;20435;-74
2022/12/25 10:36:17;;;;;;;28.93;13.17;;;;;;;;;;5078127;28;20431;-74
2022/12/25 10:38:43;;;;;;;28.25;13.70;;;;;;;;;;5095747;28;20412;-74
2022/12/25 10:41:13;;;;;;;26.33;13.13;;;;;;;;;;5093172;28;20405;-74
2022/12/25 10:43:48;;;;;;;25.98;13.77;;;;;;;;;;5122620;27;20505;-75
2022/12/25 10:46:15;;;;;;;27.38;13.25;;;;;;;;;;5087643;28;20479;-74
2022/12/25 10:48:43;;;;;;;24.60;13.10;;;;;;;;;;5091061;28;20520;-74
2022/12/25 10:51:10;;;;;;;25.33;13.40;;;;;;;;;;5087113;28;20455;-74
2022/12/25 10:53:41;;;;;;;23.08;13.05;;;;;;;;;;5090508;28;20474;-74
2022/12/25 10:56:07;;;;;;;22.52;12.77;;;;;;;;;;5096773;28;20419;-74
2022/12/25 10:58:33;;;;;;;26.23;12.02;;;;;;;;;;5090433;28;20409;-74
2022/12/25 11:01:02;;;;;;;21.30;12.43;;;;;;;;;;5087327;28;20493;-75
2022/12/25 11:03:30;;;;;;;20.95;12.10;;;;;;;;;;5077247;28;20412;-75
2022/12/25 11:05:56;;;;;;;22.98;12.10;;;;;;;;;;5088042;28;20749;-75
2022/12/25 11:08:25;;;;;;;20.35;11.48;;;;;;;;;;5085009;27;20424;-75
2022/12/25 11:10:54;;;;;;;25.60;12.63;;;;;;;;;;5089583;28;20441;-75
2022/12/25 11:13:25;;;;;;;22.67;12.23;;;;;;;;;;5087335;28;20432;-75
2022/12/25 11:16:13;;;;;;;20.33;11.75;;;8.90;99.90;;;;;;5072700;28;20416;-75
2022/12/25 11:18:47;;;;;;;20.75;11.60;;;;;;;;;;5094003;28;20481;-75
2022/12/25 11:21:16;;;;;;;22.23;11.23;;;;;;;;;;5086405;28;20408;-75
2022/12/25 11:23:49;;;;;;;21.85;11.55;;;;;;;;;;5092698;28;20493;-75
2022/12/25 11:26:16;;;;;;;25.50;12.43;;;;;;;;;;5088867;28;20783;-74
2022/12/25 11:28:42;;;;;;;21.70;12.63;;;;;;;;;;5086349;28;20439;-74
2022/12/25 11:31:11;;;;;;;21.70;12.80;;;;;;;;;;5073108;28;20451;-75
2022/12/25 11:33:58;;;;;;;23.02;13.30;;;;;;;;;;5071685;28;20430;-76
2022/12/25 11:36:44;;;;;;;25.08;14.52;;;;;;;;;;5089456;28;20470;-74
2022/12/25 11:39:13;;;;;;;24.98;13.70;;;;;;;;;;5088662;28;20412;-75
2022/12/25 11:41:40;;;;;;;22.75;11.98;;;;;;;;;;5067881;28;20416;-75
2022/12/25 11:44:25;;;;;;;25.17;12.20;;;9.40;99.90;;;;;;5093987;28;20776;-75
2022/12/25 11:46:54;;;;;;;26.13;13.20;;;9.30;99.90;;;;;;5079666;28;20426;-75
2022/12/25 11:49:21;;;;;;;21.70;11.68;;;;;;;;;;5093311;28;20419;-75
2022/12/25 11:51:49;;;;;;;24.08;12.00;;;;;;;;;;5072711;28;20420;-75
2022/12/25 11:54:23;;;;;;;20.70;11.95;;;;;;;;;;5106348;28;20485;-75
2022/12/25 11:56:49;;;;;;;21.83;12.00;;;;;;;;;;5069705;28;20832;-75
2022/12/25 11:59:25;;;;;;;22.67;11.48;;;;;;;;;;5073322;28;20988;-75
2022/12/25 12:01:55;;;;;;;20.52;11.23;;;;;;;;;;5086931;28;20430;-75
2022/12/25 12:04:27;;;;;;;19.85;11.15;;;;;;;;;;5089859;28;20487;-75
2022/12/25 12:06:53;;;;;;;22.08;11.32;;;;;;;;;;5093190;28;20767;-75
2022/12/25 12:09:38;;;;;;;20.85;10.45;;;;;;;;;;5091866;28;20431;-75
2022/12/25 12:12:10;;;;;;;20.15;10.30;;;;;;;;;;5079270;28;20425;-75
2022/12/25 12:14:39;;;;;;;17.45;10.32;;;;;;;;;;5081860;28;20412;-74
2022/12/25 12:17:08;;;;;;;22.37;11.20;;;;;;;;;;5079737;27;20458;-74
2022/12/25 12:19:34;;;;;;;21.30;10.30;;;;;;;;;;5082831;28;20423;-74
2022/12/25 12:22:01;;;;;;;18.80;10.48;;;;;;;;;;5084020;28;20424;-75
2022/12/25 12:24:50;;;;;;;18.83;10.48;;;;;;;;;;5081710;28;20410;-74
2022/12/25 12:27:26;;;;;;;16.27;9.60;;;9.20;99.90;;;;;;5060653;28;20745;-75
2022/12/25 12:29:54;;;;;;;20.98;10.10;;;;;;;;;;5059808;28;20412;-74
2022/12/25 12:32:24;;;;;;;18.83;10.43;;;;;;;;;;5069709;28;20463;-74
2022/12/25 12:34:50;;;;;;;18.50;10.23;;;;;;;;;;5080056;28;20930;-75
2022/12/25 12:37:28;;;;;;;19.70;10.38;;;9.30;99.90;;;;;;5068898;28;20516;-74
2022/12/25 12:39:54;;;;;;;18.65;10.20;;;;;;;;;;5085768;28;20632;-75
2022/12/25 12:42:24;;;;;;;21.13;10.63;;;;;;;;;;5066306;28;20431;-75
2022/12/25 12:44:51;;;;;;;19.73;10.30;;;;;;;;;;5068758;28;20495;-74
2022/12/25 12:47:37;;;;;;;20.67;10.52;;;9.80;99.90;;;;;;5086777;28;20420;-76
2022/12/25 12:50:06;;;;;;;18.88;10.57;;;;;;;;;;5087067;28;20429;-75
2022/12/25 12:52:32;;;;;;;21.85;10.70;;;;;;;;;;5059561;28;20562;-74
2022/12/25 12:55:00;;;;;;;16.45;10.13;;;;;;;;;;5086473;28;20416;-75
2022/12/25 12:57:31;;;;;;;19.58;10.20;;;10.10;99.90;;;;;;5084743;28;20417;-74
2022/12/25 12:59:58;;;;;;;17.67;10.10;;;;;;;;;;5071270;28;20411;-75
2022/12/25 13:02:27;;;;;;;17.80;10.00;;;;;;;;;;5082299;28;20510;-74
2022/12/25 13:05:13;;;;;;;18.23;9.50;;;;;;;;;;5082445;28;20481;-74
2022/12/25 13:07:49;;;;;;;18.95;10.05;;;;;;;;;;5086649;28;20967;-74
2022/12/25 13:10:22;;;;;;;17.17;9.87;;;;;;;;;;5071865;28;20533;-74
2022/12/25 13:12:51;;;;;;;21.20;10.32;;;;;;;;;;5100665;28;20420;-75
2022/12/25 13:15:26;;;;;;;20.50;9.63;;;;;;;;;;5063996;28;20406;-74
2022/12/25 13:17:55;;;;;;;19.02;10.60;;;9.70;99.90;;;;;;5077564;28;20543;-74
2022/12/25 13:20:33;;;;;;;20.45;10.32;;;;;;;;;;5083305;28;20500;-75
2022/12/25 13:22:59;;;;;;;18.85;10.02;;;;;;;;;;5086990;28;20422;-75
2022/12/25 13:25:25;;;;;;;21.25;9.77;;;;;;;;;;5071545;28;20412;-74
2022/12/25 13:27:55;;;;;;;20.77;10.17;;;;;;;;;;5068203;28;20420;-74
2022/12/25 13:30:22;;;;;;;17.17;9.38;;;;;;;;;;5088485;28;20426;-74
2022/12/25 13:32:48;;;;;;;16.98;9.88;;;;;;;;;;5070220;28;20477;-74
2022/12/25 13:35:15;;;;;;;20.35;10.13;;;;;;;;;;5092970;28;20416;-74
2022/12/25 13:37:42;;;;;;;21.40;10.17;;;;;;;;;;5069166;28;20484;-74
2022/12/25 13:40:19;;;;;;;18.63;9.98;;;;;;;;;;5083163;27;20423;-74
2022/12/25 13:42:45;;;;;;;15.30;9.32;;;;;;;;;;5089378;28;20554;-74
2022/12/25 13:45:12;;;;;;;15.85;9.25;;;;;;;;;;5082756;28;20954;-75
2022/12/25 13:47:42;;;;;;;18.42;10.10;;;9.60;99.90;;;;;;5085366;28;20419;-75
2022/12/25 13:50:14;;;;;;;16.48;9.80;;;;;;;;;;5093322;28;20919;-75
2022/12/25 13:52:40;;;;;;;18.50;10.52;;;;;;;;;;5088228;28;20428;-74
2022/12/25 13:55:17;;;;;;;15.65;10.20;;;;;;;;;;5084716;28;20453;-74
2022/12/25 13:57:51;;;;;;;17.45;10.27;;;9.40;99.90;;;;;;5087568;28;20416;-75
2022/12/25 14:00:27;;;;;;;18.70;10.85;;;;;;;;;;5067198;28;20901;-74
2022/12/25 14:02:54;;;;;;;18.27;10.80;;;;;;;;;;5092076;28;20423;-74
2022/12/25 14:05:30;;;;;;;25.13;11.73;;;;;;;;;;5089280;28;20432;-74
2022/12/25 14:07:57;;;;;;;19.52;11.02;;;;;;;;;;5068749;28;20505;-75
2022/12/25 14:10:24;;;;;;;22.10;11.55;;;;;;;;;;5066490;28;20928;-74
2022/12/25 14:12:55;;;;;;;17.52;11.57;;;;;;;;;;5088359;28;20444;-74
2022/12/25 14:15:22;;;;;;;19.17;11.40;;;;;;;;;;5087750;27;20445;-75
2022/12/25 14:17:52;;;;;;;18.73;12.32;;;;;;;;;;5087774;28;20787;-75
2022/12/25 14:20:25;;;;;;;25.00;14.43;;;;;;;;;;5088397;28;20439;-75
2022/12/25 14:22:53;;;;;;;30.95;20.38;;;;;;;;;;5063374;28;20424;-75
2022/12/25 14:25:20;;;;;;;23.63;14.25;;;;;;;;;;5086430;28;20421;-76
2022/12/25 14:27:50;;;;;;;22.92;15.07;;;;;;;;;;5084503;28;20416;-76
2022/12/25 14:30:17;;;;;;;25.00;14.53;;;;;;;;;;5074058;28;21022;-75
2022/12/25 14:32:44;;;;;;;21.30;13.70;;;;;;;;;;5089333;28;20451;-75
2022/12/25 14:35:11;;;;;;;21.90;14.93;;;;;;;;;;5074729;27;20411;-76
2022/12/25 14:37:40;;;;;;;26.75;15.90;;;;;;;;;;5065661;28;20430;-73
2022/12/25 14:40:22;;;;;;;25.92;16.50;;;;;;;;;;5076784;28;20412;-76
2022/12/25 14:42:59;;;;;;;27.30;16.55;;;;;;;;;;5067368;28;20420;-76
2022/12/25 14:45:25;;;;;;;26.42;17.30;;;;;;;;;;5074417;27;20448;-75
2022/12/25 14:47:52;;;;;;;26.23;17.27;;;;;;;;;;5090063;28;20416;-75
2022/12/25 14:50:30;;;;;;;25.85;17.00;;;;;;;;;;5077509;28;20905;-75
2022/12/25 14:52:56;;;;;;;26.88;18.52;;;;;;;;;;5072217;28;20780;-75
2022/12/25 14:55:25;;;;;;;30.60;20.40;;;;;;;;;;5072025;28;20413;-75
2022/12/25 14:58:04;;;;;;;31.55;20.88;;;10.10;99.90;;;;;;5090344;28;20903;-75
2022/12/25 15:00:30;;;;;;;37.80;22.75;;;;;;;;;;5090805;28;20473;-75
2022/12/25 15:02:57;;;;;;;34.25;22.50;;;;;;;;;;5089415;28;20420;-76
2022/12/25 15:05:26;;;;;;;32.60;21.50;;;;;;;;;;5066749;28;20517;-75
2022/12/25 15:08:09;;;;;;;33.60;22.60;;;;;;;;;;5069605;28;20513;-76
2022/12/25 15:10:35;;;;;;;33.13;22.60;;;;;;;;;;5090298;28;20477;-76
2022/12/25 15:13:01;;;;;;;33.22;22.40;;;;;;;;;;5084813;28;20482;-75
2022/12/25 15:15:28;;;;;;;33.20;22.00;;;;;;;;;;5078631;28;20487;-75
2022/12/25 15:17:54;;;;;;;36.42;23.67;;;;;;;;;;5088272;27;20495;-76
2022/12/25 15:20:21;;;;;;;30.77;21.05;;;;;;;;;;5089851;28;20419;-76
2022/12/25 15:22:47;;;;;;;29.33;19.55;;;;;;;;;;5086327;28;20430;-76
2022/12/25 15:25:13;;;;;;;33.50;20.93;;;;;;;;;;5082703;27;20485;-75
2022/12/25 15:27:41;;;;;;;35.70;22.73;;;;;;;;;;5084216;28;20423;-75
2022/12/25 15:30:08;;;;;;;34.60;22.40;;;;;;;;;;5086615;28;20443;-76
2022/12/25 15:32:34;;;;;;;30.30;20.77;;;;;;;;;;5079451;28;20433;-76
2022/12/25 15:35:00;;;;;;;30.90;20.13;;;;;;;;;;5085717;28;20427;-76
2022/12/25 15:37:26;;;;;;;32.20;20.48;;;;;;;;;;5067118;28;20408;-76
2022/12/25 15:39:53;;;;;;;32.47;21.23;;;;;;;;;;5072167;28;20427;-76
2022/12/25 15:42:21;;;;;;;33.20;21.50;;;;;;;;;;5065760;28;20435;-76
2022/12/25 15:44:47;;;;;;;32.97;21.20;;;;;;;;;;5062044;28;20535;-76
2022/12/25 15:47:15;;;;;;;34.45;21.35;;;9.10;99.90;;;;;;5081900;28;20444;-76
2022/12/25 15:49:41;;;;;;;35.83;21.55;;;;;;;;;;5066843;28;20422;-75
2022/12/25 15:52:09;;;;;;;33.42;22.05;;;;;;;;;;5084378;28;20527;-75
2022/12/25 15:54:35;;;;;;;36.05;22.70;;;;;;;;;;5067049;28;20431;-75